Time;durP1;ratioP1;P1;durP2;ratioP2;P2;SDS_P1;SDS_P2;PMS_P1;PMS_P2;Temp;Humidity;BMP_temperature;BMP_pressure;BME280_temperature;BME280_humidity;BME280_pressure;Samples;Min_cycle;Max_cycle;Signal;HPM_P1;HPM_P2
2023/12/18 00:01:26;;;;;;;;;;;3.50;99.90;;;;;;5054994;28;19909;-79
2023/12/18 00:03:52;;;;;;;;;;;3.50;99.90;;;;;;5038216;28;19921;-79
2023/12/18 00:06:17;;;;;;;;;;;3.50;99.90;;;;;;5070574;28;20375;-79
2023/12/18 00:08:43;;;;;;;;;;;3.40;99.90;;;;;;5065244;28;19923;-79
2023/12/18 00:11:08;;;;;;;;;;;3.40;99.90;;;;;;5055864;28;20295;-79
2023/12/18 00:13:34;;;;;;;;;;;3.50;99.90;;;;;;5037698;28;19913;-79
2023/12/18 00:15:59;;;;;;;;;;;3.50;99.90;;;;;;5039303;28;19966;-79
2023/12/18 00:18:25;;;;;;;;;;;3.50;99.90;;;;;;5035926;28;19948;-79
2023/12/18 00:20:52;;;;;;;;;;;3.50;99.90;;;;;;5053848;28;19978;-79
2023/12/18 00:23:18;;;;;;;;;;;3.50;99.90;;;;;;5059289;28;19928;-79
2023/12/18 00:25:43;;;;;;;;;;;3.50;99.90;;;;;;5035753;28;19912;-79
2023/12/18 00:28:09;;;;;;;;;;;3.50;99.90;;;;;;5057351;28;20299;-79
2023/12/18 00:30:34;;;;;;;;;;;3.50;99.90;;;;;;5033588;28;19925;-79
2023/12/18 00:33:00;;;;;;;;;;;3.50;99.90;;;;;;5047185;28;19913;-79
2023/12/18 00:35:25;;;;;;;;;;;3.50;99.90;;;;;;5035787;28;19901;-78
2023/12/18 00:37:51;;;;;;;;;;;3.50;99.90;;;;;;5072809;28;19909;-79
2023/12/18 00:40:16;;;;;;;;;;;3.50;99.90;;;;;;5054884;28;20003;-79
2023/12/18 00:42:42;;;;;;;;;;;3.50;99.90;;;;;;5070251;28;19931;-79
2023/12/18 00:45:08;;;;;;;;;;;3.50;99.90;;;;;;5062739;28;20294;-79
2023/12/18 00:47:33;;;;;;;;;;;3.50;99.90;;;;;;5054828;28;19915;-78
2023/12/18 00:49:59;;;;;;;;;;;3.40;99.90;;;;;;5056357;28;19924;-79
2023/12/18 00:52:24;;;;;;;;;;;3.40;99.90;;;;;;5053528;28;19921;-79
2023/12/18 00:54:50;;;;;;;;;;;3.50;99.90;;;;;;5027292;28;20375;-79
2023/12/18 00:57:16;;;;;;;;;;;3.50;99.90;;;;;;5041868;28;19901;-79
2023/12/18 00:59:41;;;;;;;;;;;3.50;99.90;;;;;;5037359;28;19916;-79
2023/12/18 01:02:06;;;;;;;;;;;3.50;99.90;;;;;;5052701;28;19960;-79
2023/12/18 01:04:32;;;;;;;;;;;3.50;99.90;;;;;;5052287;28;20425;-78
2023/12/18 01:06:57;;;;;;;;;;;3.60;99.90;;;;;;5015509;28;19920;-79
2023/12/18 01:09:23;;;;;;;;;;;3.50;99.90;;;;;;5015451;28;19917;-78
2023/12/18 01:11:49;;;;;;;;;;;3.50;99.90;;;;;;5024231;28;19912;-79
2023/12/18 01:14:14;;;;;;;;;;;3.50;99.90;;;;;;5035420;28;20015;-79
2023/12/18 01:16:40;;;;;;;;;;;3.50;99.90;;;;;;5032856;28;19909;-79
2023/12/18 01:19:05;;;;;;;;;;;3.50;99.90;;;;;;5042148;28;19917;-79
2023/12/18 01:21:31;;;;;;;;;;;3.60;99.90;;;;;;5031869;28;19913;-79
2023/12/18 01:23:56;;;;;;;;;;;3.60;99.90;;;;;;5034613;28;20295;-79
2023/12/18 01:26:22;;;;;;;;;;;3.60;99.90;;;;;;5035294;28;19917;-79
2023/12/18 01:28:47;;;;;;;;;;;3.50;99.90;;;;;;5033124;28;19913;-79
2023/12/18 01:31:22;;;;;;;;;;;3.50;99.90;;;;;;5033598;28;20052;-79
2023/12/18 01:33:47;;;;;;;;;;;3.50;99.90;;;;;;5024515;28;19992;-79
2023/12/18 01:36:13;;;;;;;;;;;3.60;99.90;;;;;;5064550;28;20409;-79
2023/12/18 01:38:38;;;;;;;;;;;3.60;99.90;;;;;;5080674;28;20436;-79
2023/12/18 01:41:04;;;;;;;;;;;3.60;99.90;;;;;;5054900;28;19909;-79
2023/12/18 01:43:29;;;;;;;;;;;3.60;99.90;;;;;;5042099;28;19927;-79
2023/12/18 01:45:59;;;;;;;;;;;3.60;99.90;;;;;;5039489;28;20378;-79
2023/12/18 01:48:25;;;;;;;;;;;3.60;99.90;;;;;;5052900;28;19963;-79
2023/12/18 01:50:52;;;;;;;;;;;3.60;99.90;;;;;;5044312;28;19896;-79
2023/12/18 01:53:18;;;;;;;;;;;3.60;99.90;;;;;;5049136;28;19939;-79
2023/12/18 01:55:43;;;;;;;;;;;3.60;99.90;;;;;;5031560;28;19917;-79
2023/12/18 01:58:09;;;;;;;;;;;3.50;99.90;;;;;;5057624;28;19913;-79
2023/12/18 02:00:35;;;;;;;;;;;3.50;99.90;;;;;;5058077;28;20011;-79
2023/12/18 02:03:01;;;;;;;;;;;3.50;99.90;;;;;;5056159;28;19958;-79
2023/12/18 02:05:26;;;;;;;;;;;3.50;99.90;;;;;;5047870;28;19917;-79
2023/12/18 02:07:52;;;;;;;;;;;3.60;99.90;;;;;;5018981;28;19909;-79
2023/12/18 02:10:18;;;;;;;;;;;3.60;99.90;;;;;;5018898;28;19917;-79
2023/12/18 02:12:43;;;;;;;;;;;3.60;99.90;;;;;;5033188;28;19917;-79
2023/12/18 02:15:09;;;;;;;;;;;3.60;99.90;;;;;;5037990;28;19909;-79
2023/12/18 02:17:34;;;;;;;;;;;3.50;99.90;;;;;;5056207;28;19932;-79
2023/12/18 02:20:07;;;;;;;;;;;3.50;99.90;;;;;;5039674;28;19924;-79
2023/12/18 02:22:53;;;;;;;;;;;3.60;99.90;;;;;;5037910;28;19917;-79
2023/12/18 02:25:19;;;;;;;;;;;3.50;99.90;;;;;;5039125;28;19958;-79
2023/12/18 02:27:45;;;;;;;;;;;3.50;99.90;;;;;;5038051;28;19913;-79
2023/12/18 02:30:14;;;;;;;;;;;3.50;99.90;;;;;;5040133;28;19927;-79
2023/12/18 02:32:40;;;;;;;;;;;3.50;99.90;;;;;;5058771;28;19975;-78
2023/12/18 02:35:06;;;;;;;;;;;3.60;99.90;;;;;;5051855;28;19912;-79
2023/12/18 02:37:31;;;;;;;;;;;3.60;99.90;;;;;;5074019;28;20019;-79
2023/12/18 02:39:57;;;;;;;;;;;3.50;99.90;;;;;;5082620;28;20394;-79
2023/12/18 02:42:25;;;;;;;;;;;3.50;99.90;;;;;;5069403;28;20004;-79
2023/12/18 02:44:51;;;;;;;;;;;3.50;99.90;;;;;;5057134;28;19916;-79
2023/12/18 02:47:16;;;;;;;;;;;3.50;99.90;;;;;;5054182;28;20016;-79
2023/12/18 02:49:45;;;;;;;;;;;3.50;99.90;;;;;;5053659;28;20432;-79
2023/12/18 02:52:11;;;;;;;;;;;3.50;99.90;;;;;;5056808;28;20007;-79
2023/12/18 02:54:36;;;;;;;;;;;3.50;99.90;;;;;;5045814;28;20035;-79
2023/12/18 02:57:02;;;;;;;;;;;3.50;99.90;;;;;;5051290;28;19909;-79
2023/12/18 02:59:27;;;;;;;;;;;3.40;99.90;;;;;;5056178;28;19916;-79
2023/12/18 03:01:53;;;;;;;;;;;3.40;99.90;;;;;;5053413;28;19958;-79
2023/12/18 03:04:19;;;;;;;;;;;3.40;99.90;;;;;;5056512;28;20368;-79
2023/12/18 03:06:45;;;;;;;;;;;3.50;99.90;;;;;;5054179;28;19919;-79
2023/12/18 03:09:11;;;;;;;;;;;3.50;99.90;;;;;;5055033;28;20333;-79
2023/12/18 03:11:36;;;;;;;;;;;3.60;99.90;;;;;;5068128;28;19901;-79
2023/12/18 03:14:02;;;;;;;;;;;3.60;99.90;;;;;;5054928;28;20268;-79
2023/12/18 03:16:27;;;;;;;;;;;3.60;99.90;;;;;;5054880;28;19913;-79
2023/12/18 03:18:53;;;;;;;;;;;3.60;99.90;;;;;;5062605;28;20349;-79
2023/12/18 03:21:18;;;;;;;;;;;3.50;99.90;;;;;;5053947;28;20283;-79
2023/12/18 03:23:44;;;;;;;;;;;3.50;99.90;;;;;;5053433;28;19920;-79
2023/12/18 03:26:09;;;;;;;;;;;3.50;99.90;;;;;;5063587;28;19925;-79
2023/12/18 03:28:35;;;;;;;;;;;3.60;99.90;;;;;;5064930;28;20422;-79
2023/12/18 03:31:00;;;;;;;;;;;3.60;99.90;;;;;;5050611;28;20012;-79
2023/12/18 03:33:26;;;;;;;;;;;3.60;99.90;;;;;;5057567;28;19917;-79
2023/12/18 03:35:51;;;;;;;;;;;3.60;99.90;;;;;;5065942;28;19908;-79
2023/12/18 03:38:17;;;;;;;;;;;3.60;99.90;;;;;;5075857;28;19912;-79
2023/12/18 03:40:42;;;;;;;;;;;3.60;99.90;;;;;;5072832;28;19966;-79
2023/12/18 03:43:08;;;;;;;;;;;3.60;99.90;;;;;;5072952;28;20294;-79
2023/12/18 03:45:33;;;;;;;;;;;3.60;99.90;;;;;;5077568;28;19923;-79
2023/12/18 03:47:59;;;;;;;;;;;3.60;99.90;;;;;;5072944;28;19956;-79
2023/12/18 03:50:24;;;;;;;;;;;3.60;99.90;;;;;;5074891;28;19908;-79
2023/12/18 03:52:50;;;;;;;;;;;3.70;99.90;;;;;;5059252;28;19956;-79
2023/12/18 03:55:16;;;;;;;;;;;3.70;99.90;;;;;;5042620;28;19995;-79
2023/12/18 03:57:41;;;;;;;;;;;3.70;99.90;;;;;;5062892;28;19897;-79
2023/12/18 04:00:07;;;;;;;;;;;3.70;99.90;;;;;;5060779;28;19916;-79
2023/12/18 04:02:32;;;;;;;;;;;3.70;99.90;;;;;;5054050;28;19909;-79
2023/12/18 04:04:58;;;;;;;;;;;3.80;99.90;;;;;;5049169;28;19921;-79
2023/12/18 04:07:23;;;;;;;;;;;3.80;99.90;;;;;;5036987;28;19913;-79
2023/12/18 04:09:49;;;;;;;;;;;3.80;99.90;;;;;;5052446;28;19909;-79
2023/12/18 04:12:15;;;;;;;;;;;3.70;99.90;;;;;;5055554;28;20272;-79
2023/12/18 04:14:43;;;;;;;;;;;3.80;99.90;;;;;;5051734;28;19915;-79
2023/12/18 04:17:09;;;;;;;;;;;3.80;99.90;;;;;;5054042;28;19916;-79
2023/12/18 04:19:34;;;;;;;;;;;3.80;99.90;;;;;;5065435;28;19917;-79
2023/12/18 04:22:00;;;;;;;;;;;3.80;99.90;;;;;;5053814;28;19999;-79
2023/12/18 04:24:25;;;;;;;;;;;3.80;99.90;;;;;;5052242;28;20280;-79
2023/12/18 04:26:51;;;;;;;;;;;3.70;99.90;;;;;;5062712;28;19925;-79
2023/12/18 04:29:17;;;;;;;;;;;3.70;99.90;;;;;;5052503;28;19909;-79
2023/12/18 04:31:43;;;;;;;;;;;3.70;99.90;;;;;;5047775;28;19923;-79
2023/12/18 04:34:08;;;;;;;;;;;3.80;99.90;;;;;;5050418;28;19995;-79
2023/12/18 04:36:40;;;;;;;;;;;3.80;99.90;;;;;;5070734;28;19908;-79
2023/12/18 04:39:06;;;;;;;;;;;3.80;99.90;;;;;;5079547;28;19921;-79
2023/12/18 04:41:31;;;;;;;;;;;3.80;99.90;;;;;;5068771;28;19916;-79
2023/12/18 04:43:57;;;;;;;;;;;3.80;99.90;;;;;;5051921;28;19913;-79
2023/12/18 04:46:22;;;;;;;;;;;3.80;99.90;;;;;;5055469;28;20421;-79
2023/12/18 04:48:48;;;;;;;;;;;3.80;99.90;;;;;;5052081;28;19909;-79
2023/12/18 04:51:14;;;;;;;;;;;3.80;99.90;;;;;;5055138;28;19913;-79
2023/12/18 04:53:40;;;;;;;;;;;3.80;99.90;;;;;;5049478;28;20008;-79
2023/12/18 04:56:06;;;;;;;;;;;3.80;99.90;;;;;;5039223;28;19913;-79
2023/12/18 04:58:34;;;;;;;;;;;3.80;99.90;;;;;;5046249;28;19904;-78
2023/12/18 05:01:00;;;;;;;;;;;3.80;99.90;;;;;;5036337;28;19920;-79
2023/12/18 05:03:25;;;;;;;;;;;3.80;99.90;;;;;;5033411;28;20291;-79
2023/12/18 05:05:51;;;;;;;;;;;3.80;99.90;;;;;;5040540;28;19932;-79
2023/12/18 05:08:16;;;;;;;;;;;3.80;99.90;;;;;;5043849;28;19913;-79
2023/12/18 05:10:42;;;;;;;;;;;3.80;99.90;;;;;;5034917;28;19913;-79
2023/12/18 05:13:07;;;;;;;;;;;3.70;99.90;;;;;;5044886;28;19901;-78
2023/12/18 05:15:33;;;;;;;;;;;3.70;99.90;;;;;;5031957;28;20387;-79
2023/12/18 05:17:58;;;;;;;;;;;3.70;99.90;;;;;;5033582;28;19932;-79
2023/12/18 05:20:24;;;;;;;;;;;3.70;99.90;;;;;;5045946;28;19914;-79
2023/12/18 05:22:49;;;;;;;;;;;3.70;99.90;;;;;;5033031;28;19909;-79
2023/12/18 05:25:15;;;;;;;;;;;3.70;99.90;;;;;;5033964;28;19920;-79
2023/12/18 05:27:41;;;;;;;;;;;3.80;99.90;;;;;;5047740;28;20372;-79
2023/12/18 05:30:06;;;;;;;;;;;3.80;99.90;;;;;;5041568;28;19943;-79
2023/12/18 05:32:32;;;;;;;;;;;3.80;99.90;;;;;;5049723;28;20003;-79
2023/12/18 05:34:57;;;;;;;;;;;3.80;99.90;;;;;;5062303;28;19907;-79
2023/12/18 05:37:23;;;;;;;;;;;3.70;99.90;;;;;;5086223;28;19920;-79
2023/12/18 05:39:48;;;;;;;;;;;3.70;99.90;;;;;;5096957;28;19908;-79
2023/12/18 05:42:19;;;;;;;;;;;3.70;99.90;;;;;;5080841;28;19904;-79
2023/12/18 05:44:45;;;;;;;;;;;3.80;99.90;;;;;;5080349;28;20018;-79
2023/12/18 05:47:10;;;;;;;;;;;3.80;99.90;;;;;;5076374;28;19947;-79
2023/12/18 05:49:37;;;;;;;;;;;3.80;99.90;;;;;;5064931;28;19900;-79
2023/12/18 05:52:02;;;;;;;;;;;3.70;99.90;;;;;;5078007;28;20446;-79
2023/12/18 05:54:28;;;;;;;;;;;3.70;99.90;;;;;;5059535;28;20004;-79
2023/12/18 05:56:53;;;;;;;;;;;3.80;99.90;;;;;;5066113;28;19935;-79
2023/12/18 05:59:19;;;;;;;;;;;3.80;99.90;;;;;;5056373;28;20401;-79
2023/12/18 06:01:44;;;;;;;;;;;3.80;99.90;;;;;;5038337;28;19912;-79
2023/12/18 06:04:10;;;;;;;;;;;3.80;99.90;;;;;;5044555;28;20387;-79
2023/12/18 06:06:36;;;;;;;;;;;3.80;99.90;;;;;;5038087;28;19912;-79
2023/12/18 06:09:02;;;;;;;;;;;3.70;99.90;;;;;;5056324;28;19931;-79
2023/12/18 06:11:27;;;;;;;;;;;3.70;99.90;;;;;;5047750;28;20341;-79
2023/12/18 06:13:53;;;;;;;;;;;3.70;99.90;;;;;;5056224;28;19913;-79
2023/12/18 06:16:18;;;;;;;;;;;3.60;99.90;;;;;;5057292;28;19916;-79
2023/12/18 06:18:44;;;;;;;;;;;3.60;99.90;;;;;;5049239;28;19924;-79
2023/12/18 06:21:09;;;;;;;;;;;3.50;99.90;;;;;;5075717;28;19913;-79
2023/12/18 06:23:35;;;;;;;;;;;3.50;99.90;;;;;;5078988;28;19935;-79
2023/12/18 06:26:00;;;;;;;;;;;3.50;99.90;;;;;;5057891;28;20367;-79
2023/12/18 06:28:26;;;;;;;;;;;3.50;99.90;;;;;;5042643;28;20009;-79
2023/12/18 06:30:51;;;;;;;;;;;3.50;99.90;;;;;;5055760;28;19990;-79
2023/12/18 06:33:17;;;;;;;;;;;3.60;99.90;;;;;;5047405;28;19913;-79
2023/12/18 06:35:42;;;;;;;;;;;3.60;99.90;;;;;;5043378;28;19913;-79
2023/12/18 06:38:08;;;;;;;;;;;3.50;99.90;;;;;;5047220;28;19966;-79
2023/12/18 06:40:33;;;;;;;;;;;3.40;99.90;;;;;;5054479;28;19958;-79
2023/12/18 06:42:59;;;;;;;;;;;3.40;99.90;;;;;;5036994;28;19920;-79
2023/12/18 06:45:24;;;;;;;;;;;3.40;99.90;;;;;;5035806;28;19957;-79
2023/12/18 06:47:50;;;;;;;;;;;3.40;99.90;;;;;;5023282;28;19995;-79
2023/12/18 06:50:15;;;;;;;;;;;3.30;99.90;;;;;;5041137;28;19914;-78
2023/12/18 06:52:41;;;;;;;;;;;3.30;99.90;;;;;;5043396;28;19920;-78
2023/12/18 06:55:07;;;;;;;;;;;3.30;99.90;;;;;;5055032;28;19919;-78
2023/12/18 06:57:33;;;;;;;;;;;3.30;99.90;;;;;;5052009;28;19982;-78
2023/12/18 06:59:58;;;;;;;;;;;3.30;99.90;;;;;;5057635;28;19920;-78
2023/12/18 07:02:26;;;;;;;;;;;3.30;99.90;;;;;;5054203;28;19992;-78
2023/12/18 07:04:52;;;;;;;;;;;3.30;99.90;;;;;;5030852;28;19921;-78
2023/12/18 07:07:18;;;;;;;;;;;3.20;99.90;;;;;;5033881;28;19916;-78
2023/12/18 07:09:44;;;;;;;;;;;3.20;99.90;;;;;;5068667;28;19931;-78
2023/12/18 07:12:09;;;;;;;;;;;3.20;99.90;;;;;;5036184;28;19909;-78
2023/12/18 07:14:35;;;;;;;;;;;3.20;99.90;;;;;;5051644;28;19948;-78
2023/12/18 07:17:00;;;;;;;;;;;3.30;99.90;;;;;;5035152;28;19939;-79
2023/12/18 07:19:26;;;;;;;;;;;3.30;99.90;;;;;;5036138;28;19912;-78
2023/12/18 07:21:51;;;;;;;;;;;3.30;99.90;;;;;;5042226;28;19897;-78
2023/12/18 07:24:17;;;;;;;;;;;3.30;99.90;;;;;;5053246;28;19920;-78
2023/12/18 07:26:42;;;;;;;;;;;3.20;99.90;;;;;;5059638;28;20677;-79
2023/12/18 07:29:08;;;;;;;;;;;3.20;99.90;;;;;;5035613;28;19913;-78
2023/12/18 07:31:33;;;;;;;;;;;3.20;99.90;;;;;;5064062;28;19931;-78
2023/12/18 07:33:59;;;;;;;;;;;3.10;99.90;;;;;;5082469;28;19917;-82
2023/12/18 07:36:24;;;;;;;;;;;3.20;99.90;;;;;;5094550;28;20279;-78
2023/12/18 07:38:50;;;;;;;;;;;3.10;99.90;;;;;;5078852;28;19916;-77
2023/12/18 07:41:16;;;;;;;;;;;3.10;99.90;;;;;;5054232;28;20363;-78
2023/12/18 07:43:41;;;;;;;;;;;3.10;99.90;;;;;;5054200;28;19931;-78
2023/12/18 07:46:15;;;;;;;;;;;3.00;99.90;;;;;;5065649;28;19900;-79
2023/12/18 07:48:41;;;;;;;;;;;3.00;99.90;;;;;;5062054;28;19966;-78
2023/12/18 07:51:07;;;;;;;;;;;2.90;99.90;;;;;;5054494;28;19916;-80
2023/12/18 07:53:32;;;;;;;;;;;2.90;99.90;;;;;;5064277;28;20349;-79
2023/12/18 07:55:58;;;;;;;;;;;2.90;99.90;;;;;;5047517;28;20441;-78
2023/12/18 07:58:23;;;;;;;;;;;3.00;99.90;;;;;;5046028;28;19923;-80
2023/12/18 08:00:49;;;;;;;;;;;3.00;99.90;;;;;;5044050;28;19913;-77
2023/12/18 08:03:14;;;;;;;;;;;3.10;99.90;;;;;;5064414;28;19916;-80
2023/12/18 08:05:40;;;;;;;;;;;3.00;99.90;;;;;;5047321;28;19962;-78
2023/12/18 08:08:05;;;;;;;;;;;3.00;99.90;;;;;;5058409;28;19917;-78
2023/12/18 08:10:32;;;;;;;;;;;3.00;99.90;;;;;;5046757;28;19927;-80
2023/12/18 08:12:57;;;;;;;;;;;2.90;99.90;;;;;;5066426;28;19920;-82
2023/12/18 08:15:23;;;;;;;;;;;2.80;99.90;;;;;;5051930;28;19919;-78
2023/12/18 08:17:48;;;;;;;;;;;2.80;99.90;;;;;;5048703;28;19979;-82
2023/12/18 08:20:15;;;;;;;;;;;2.80;99.90;;;;;;5040181;28;19913;-81
2023/12/18 08:22:41;;;;;;;;;;;2.80;99.90;;;;;;5041546;28;19919;-78
2023/12/18 08:25:07;;;;;;;;;;;2.80;99.90;;;;;;5067429;28;19916;-79
2023/12/18 08:27:33;;;;;;;;;;;2.80;99.90;;;;;;5097416;28;19927;-80
2023/12/18 08:29:59;;;;;;;;;;;2.60;99.90;;;;;;5074780;28;19920;-78
2023/12/18 08:32:24;;;;;;;;;;;2.70;99.90;;;;;;5060055;28;20293;-78
2023/12/18 08:34:50;;;;;;;;;;;2.60;99.90;;;;;;5042094;28;19916;-77
2023/12/18 08:37:16;;;;;;;;;;;2.60;99.90;;;;;;5042002;28;19913;-77
2023/12/18 08:39:41;;;;;;;;;;;2.70;99.90;;;;;;5057974;28;20864;-81
2023/12/18 08:42:07;;;;;;;;;;;2.70;99.90;;;;;;5066983;28;19916;-79
2023/12/18 08:44:32;;;;;;;;;;;2.60;99.90;;;;;;5051666;28;19917;-81
2023/12/18 08:46:58;;;;;;;;;;;2.50;99.90;;;;;;5043613;28;20367;-81
2023/12/18 08:49:24;;;;;;;;;;;2.40;99.90;;;;;;5042649;28;19924;-81
2023/12/18 08:51:49;;;;;;;;;;;2.50;99.90;;;;;;5051148;28;20379;-82
2023/12/18 08:54:15;;;;;;;;;;;2.50;99.90;;;;;;5080049;28;19932;-81
2023/12/18 08:56:40;;;;;;;;;;;2.50;99.90;;;;;;5077456;28;19917;-80
2023/12/18 08:59:06;;;;;;;;;;;2.60;99.90;;;;;;5053075;28;19913;-82
2023/12/18 09:01:35;;;;;;;;;;;2.70;99.90;;;;;;5050907;28;19916;-79
2023/12/18 09:04:01;;;;;;;;;;;2.70;99.90;;;;;;5044615;28;20346;-82
2023/12/18 09:06:26;;;;;;;;;;;2.70;99.90;;;;;;5067487;28;19962;-82
2023/12/18 09:08:52;;;;;;;;;;;2.70;99.90;;;;;;5052261;28;20007;-79
2023/12/18 09:11:17;;;;;;;;;;;2.70;99.90;;;;;;5064019;28;19918;-79
2023/12/18 09:13:43;;;;;;;;;;;2.70;99.90;;;;;;5053631;28;20019;-80
2023/12/18 09:16:08;;;;;;;;;;;2.60;99.90;;;;;;5064698;28;20004;-79
2023/12/18 09:18:34;;;;;;;;;;;2.70;99.90;;;;;;5041850;28;19917;-79
2023/12/18 09:21:03;;;;;;;;;;;2.70;99.90;;;;;;5073480;28;19919;-79
2023/12/18 09:23:29;;;;;;;;;;;2.60;99.90;;;;;;5053159;28;20006;-82
2023/12/18 09:25:54;;;;;;;;;;;2.50;99.90;;;;;;5076024;28;19954;-79
2023/12/18 09:28:20;;;;;;;;;;;2.50;99.90;;;;;;5079145;28;19905;-83
2023/12/18 09:30:45;;;;;;;;;;;2.30;99.90;;;;;;5045631;28;19964;-79
2023/12/18 09:33:11;;;;;;;;;;;2.30;99.90;;;;;;5048153;28;19966;-80
2023/12/18 09:35:36;;;;;;;;;;;2.30;99.90;;;;;;5046813;28;20431;-79
2023/12/18 09:38:02;;;;;;;;;;;2.40;99.90;;;;;;5051018;28;20009;-80
2023/12/18 09:40:28;;;;;;;;;;;2.40;99.90;;;;;;5057016;28;19913;-79
2023/12/18 09:42:54;;;;;;;;;;;2.30;99.90;;;;;;5072609;28;20009;-80
2023/12/18 09:45:21;;;;;;;;;;;2.30;99.90;;;;;;5053384;28;19917;-81
2023/12/18 09:47:47;;;;;;;;;;;2.20;99.90;;;;;;5038271;28;19909;-80
2023/12/18 09:50:12;;;;;;;;;;;2.20;99.90;;;;;;5072696;28;19908;-81
2023/12/18 09:52:39;;;;;;;;;;;2.10;99.90;;;;;;5073973;28;19922;-79
2023/12/18 09:55:05;;;;;;;;;;;2.10;99.90;;;;;;5069205;28;19932;-79
2023/12/18 09:57:32;;;;;;;;;;;2.10;99.90;;;;;;5057749;28;19908;-81
2023/12/18 09:59:58;;;;;;;;;;;2.20;99.90;;;;;;5055609;28;19913;-79
2023/12/18 10:02:24;;;;;;;;;;;2.20;99.90;;;;;;5055974;28;19938;-81
2023/12/18 10:04:50;;;;;;;;;;;2.20;99.90;;;;;;5056776;28;19942;-79
2023/12/18 10:07:16;;;;;;;;;;;2.30;99.90;;;;;;5074598;28;19916;-82
2023/12/18 10:09:42;;;;;;;;;;;2.40;99.90;;;;;;5057485;28;19912;-81
2023/12/18 10:12:08;;;;;;;;;;;2.30;99.90;;;;;;5071409;28;19955;-79
2023/12/18 10:14:33;;;;;;;;;;;2.40;99.90;;;;;;5048150;28;19944;-79
2023/12/18 10:16:59;;;;;;;;;;;2.40;99.90;;;;;;5045282;28;19955;-81
2023/12/18 10:19:27;;;;;;;;;;;2.30;99.90;;;;;;5069500;28;19916;-79
2023/12/18 10:21:53;;;;;;;;;;;2.40;99.90;;;;;;5063820;28;19970;-79
2023/12/18 10:24:18;;;;;;;;;;;2.50;99.90;;;;;;5071211;28;19921;-81
2023/12/18 10:26:45;;;;;;;;;;;2.50;99.90;;;;;;5080949;28;19916;-79
2023/12/18 10:29:12;;;;;;;;;;;2.50;99.90;;;;;;5050130;28;19913;-81
2023/12/18 10:31:38;;;;;;;;;;;2.50;99.90;;;;;;5068039;28;19924;-79
2023/12/18 10:34:05;;;;;;;;;;;2.70;99.90;;;;;;5065425;28;20355;-80
2023/12/18 10:36:35;;;;;;;;;;;2.80;99.90;;;;;;5045888;28;19908;-79
2023/12/18 10:39:02;;;;;;;;;;;2.90;99.90;;;;;;5042404;28;19937;-81
2023/12/18 10:41:30;;;;;;;;;;;2.80;99.90;;;;;;5048166;28;19912;-80
2023/12/18 10:43:55;;;;;;;;;;;2.80;99.90;;;;;;5046128;28;19999;-79
2023/12/18 10:46:23;;;;;;;;;;;2.90;99.90;;;;;;5064146;28;20008;-79
2023/12/18 10:48:51;;;;;;;;;;;3.00;99.90;;;;;;5060723;28;19916;-80
2023/12/18 10:51:20;;;;;;;;;;;2.90;99.90;;;;;;5046850;28;19909;-78
2023/12/18 10:53:47;;;;;;;;;;;3.10;99.90;;;;;;5042074;28;19956;-80
2023/12/18 10:56:14;;;;;;;;;;;3.00;99.90;;;;;;5060192;28;19912;-79
2023/12/18 10:58:40;;;;;;;;;;;3.00;99.90;;;;;;5063389;28;19919;-80
2023/12/18 11:01:07;;;;;;;;;;;3.10;99.90;;;;;;5045630;28;20003;-79
2023/12/18 11:03:33;;;;;;;;;;;3.00;99.90;;;;;;5064541;28;19927;-79
2023/12/18 11:05:59;;;;;;;;;;;3.00;99.90;;;;;;5049295;28;20345;-80
2023/12/18 11:08:25;;;;;;;;;;;3.10;99.90;;;;;;5066752;28;19913;-78
2023/12/18 11:10:51;;;;;;;;;;;3.10;99.90;;;;;;5059209;28;20413;-79
2023/12/18 11:13:43;;;;;;;;;;;3.10;99.90;;;;;;5067397;28;20386;-79
2023/12/18 11:16:25;;;;;;;;;;;3.20;99.90;;;;;;5045900;28;19966;-79
2023/12/18 11:18:56;;;;;;;;;;;3.20;99.90;;;;;;5044467;28;19940;-79
2023/12/18 11:21:22;;;;;;;;;;;3.20;99.90;;;;;;5048445;28;19924;-78
2023/12/18 11:23:49;;;;;;;;;;;3.40;99.90;;;;;;5047762;28;19916;-78
2023/12/18 11:26:14;;;;;;;;;;;3.60;99.90;;;;;;5046826;28;19966;-80
2023/12/18 11:28:41;;;;;;;;;;;3.40;99.90;;;;;;5047113;28;20728;-80
2023/12/18 11:31:08;;;;;;;;;;;3.50;99.90;;;;;;5084938;28;19988;-80
2023/12/18 11:33:33;;;;;;;;;;;3.30;99.90;;;;;;5044960;28;19960;-77
2023/12/18 11:35:59;;;;;;;;;;;3.50;99.90;;;;;;5034586;28;20336;-78
2023/12/18 11:38:25;;;;;;;;;;;3.40;99.90;;;;;;5033292;28;19921;-79
2023/12/18 11:40:52;;;;;;;;;;;3.40;99.90;;;;;;5052329;28;19962;-80
2023/12/18 11:43:37;;;;;;;;;;;3.40;99.90;;;;;;5033068;28;19916;-78
2023/12/18 11:46:07;;;;;;;;;;;3.40;99.90;;;;;;5033721;28;20359;-79
2023/12/18 11:48:32;;;;;;;;;;;3.50;99.90;;;;;;5034168;28;19924;-78
2023/12/18 11:50:59;;;;;;;;;;;3.60;99.90;;;;;;5034014;28;19913;-78
2023/12/18 11:53:24;;;;;;;;;;;3.50;99.90;;;;;;5056592;28;19924;-78
2023/12/18 11:55:53;;;;;;;;;;;3.50;99.90;;;;;;5054973;28;19913;-80
2023/12/18 11:58:20;;;;;;;;;;;3.40;99.90;;;;;;5052953;28;19927;-79
2023/12/18 12:00:45;;;;;;;;;;;3.20;99.90;;;;;;5052105;28;19913;-80
2023/12/18 12:03:12;;;;;;;;;;;3.20;99.90;;;;;;5032953;28;20387;-77
2023/12/18 12:05:38;;;;;;;;;;;3.30;99.90;;;;;;5055312;28;20039;-78
2023/12/18 12:08:04;;;;;;;;;;;3.30;99.90;;;;;;5051299;28;19971;-78
2023/12/18 12:10:29;;;;;;;;;;;3.30;99.90;;;;;;5048372;28;19947;-78
2023/12/18 12:12:56;;;;;;;;;;;3.40;99.90;;;;;;5039613;28;19924;-79
2023/12/18 12:15:24;;;;;;;;;;;3.40;99.90;;;;;;5035498;28;19921;-78
2023/12/18 12:17:50;;;;;;;;;;;3.50;99.90;;;;;;5031003;28;20036;-79
2023/12/18 12:20:17;;;;;;;;;;;3.50;99.90;;;;;;5032622;28;19956;-80
2023/12/18 12:22:45;;;;;;;;;;;3.50;99.90;;;;;;5059063;28;19920;-79
2023/12/18 12:25:11;;;;;;;;;;;3.50;99.90;;;;;;5047303;28;19947;-79
2023/12/18 12:27:36;;;;;;;;;;;3.60;99.90;;;;;;5047661;28;19921;-80
2023/12/18 12:30:02;;;;;;;;;;;3.60;99.90;;;;;;5033845;28;20006;-79
2023/12/18 12:32:28;;;;;;;;;;;3.70;99.90;;;;;;5040597;28;19916;-80
2023/12/18 12:34:55;;;;;;;;;;;3.70;99.90;;;;;;5034005;28;19959;-80
2023/12/18 12:37:21;;;;;;;;;;;3.80;99.90;;;;;;5044424;28;19952;-80
2023/12/18 12:39:59;;;;;;;;;;;3.90;99.90;;;;;;5041839;28;19928;-81
2023/12/18 12:42:25;;;;;;;;;;;3.90;99.90;;;;;;5042072;28;19913;-78
2023/12/18 12:44:50;;;;;;;;;;;3.90;99.90;;;;;;5038991;28;20796;-80
2023/12/18 12:47:16;;;;;;;;;;;4.00;99.90;;;;;;5037072;28;20020;-80
2023/12/18 12:49:51;;;;;;;;;;;3.90;99.90;;;;;;5026606;28;19901;-78
2023/12/18 12:52:16;;;;;;;;;;;3.90;99.90;;;;;;5040172;28;19932;-79
2023/12/18 12:54:46;;;;;;;;;;;4.00;99.90;;;;;;5014240;28;20650;-79
2023/12/18 12:57:15;;;;;;;;;;;4.30;99.90;;;;;;5013610;28;20095;-77
2023/12/18 12:59:53;;;;;;;;;;;4.20;99.90;;;;;;5015925;28;20027;-77
2023/12/18 13:02:18;;;;;;;;;;;4.30;99.90;;;;;;5014511;28;20674;-79
2023/12/18 13:04:44;;;;;;;;;;;4.30;99.90;;;;;;5020075;28;19976;-78
2023/12/18 13:07:09;;;;;;;;;;;4.30;99.90;;;;;;5011858;28;20035;-80
2023/12/18 13:09:35;;;;;;;;;;;4.20;99.90;;;;;;5010156;28;20018;-79
2023/12/18 13:12:04;;;;;;;;;;;4.20;99.90;;;;;;5016787;28;19921;-80
2023/12/18 13:14:30;;;;;;;;;;;4.20;99.90;;;;;;5025063;28;19917;-79
2023/12/18 13:16:55;;;;;;;;;;;4.20;99.90;;;;;;5008207;28;19927;-78
2023/12/18 13:19:21;;;;;;;;;;;4.30;99.90;;;;;;5010980;28;19936;-80
2023/12/18 13:21:47;;;;;;;;;;;4.30;99.90;;;;;;5011422;28;20119;-79
2023/12/18 13:24:12;;;;;;;;;;;4.40;99.90;;;;;;5016985;28;19978;-79
2023/12/18 13:26:38;;;;;;;;;;;4.40;99.90;;;;;;5010411;28;19932;-79
2023/12/18 13:29:04;;;;;;;;;;;4.40;99.90;;;;;;5011265;28;19921;-79
2023/12/18 13:31:32;;;;;;;;;;;4.40;99.90;;;;;;5030170;28;20458;-79
2023/12/18 13:34:04;;;;;;;;;;;4.40;99.90;;;;;;5039647;28;19909;-78
2023/12/18 13:36:30;;;;;;;;;;;4.30;99.90;;;;;;5024359;28;20383;-78
2023/12/18 13:38:56;;;;;;;;;;;4.30;99.90;;;;;;5029217;28;21335;-79
2023/12/18 13:41:30;;;;;;;;;;;4.40;99.90;;;;;;5036204;28;19923;-79
2023/12/18 13:43:55;;;;;;;;;;;4.50;99.90;;;;;;5040949;28;19925;-80
2023/12/18 13:46:21;;;;;;;;;;;4.50;99.90;;;;;;5019395;28;19924;-80
2023/12/18 13:48:47;;;;;;;;;;;4.40;99.90;;;;;;5039709;28;20064;-79
2023/12/18 13:51:12;;;;;;;;;;;4.40;99.90;;;;;;5041531;28;19907;-78
2023/12/18 13:53:38;;;;;;;;;;;4.40;99.90;;;;;;5042958;28;19920;-79
2023/12/18 13:56:03;;;;;;;;;;;4.40;99.90;;;;;;5038341;28;20017;-79
2023/12/18 13:58:29;;;;;;;;;;;4.50;99.90;;;;;;5028246;28;19921;-78
2023/12/18 14:00:54;;;;;;;;;;;4.40;99.90;;;;;;5043045;28;19990;-79
2023/12/18 14:03:20;;;;;;;;;;;4.30;99.90;;;;;;5036869;28;20039;-78
2023/12/18 14:05:45;;;;;;;;;;;4.30;99.90;;;;;;5041447;28;19916;-79
2023/12/18 14:08:11;;;;;;;;;;;4.30;99.90;;;;;;5022047;28;19998;-80
2023/12/18 14:10:36;;;;;;;;;;;4.30;99.90;;;;;;5026134;28;20415;-79
2023/12/18 14:13:02;;;;;;;;;;;4.30;99.90;;;;;;5033665;28;19924;-80
2023/12/18 14:15:28;;;;;;;;;;;4.30;99.90;;;;;;5021857;28;19913;-80
2023/12/18 14:17:53;;;;;;;;;;;4.40;99.90;;;;;;5023935;28;20458;-80
2023/12/18 14:20:19;;;;;;;;;;;4.30;99.90;;;;;;5041728;28;19916;-80
2023/12/18 14:22:44;;;;;;;;;;;4.20;99.90;;;;;;5040360;28;19919;-78
2023/12/18 14:25:10;;;;;;;;;;;4.20;99.90;;;;;;5056644;28;19912;-78